ADDS METAR Data INFO
IDs: Format: Raw Decoded Include TAF

Data at: 0713 UTC 24 Jun 2018

KECP 240653Z AUTO 19004KT 10SM CLR 26/24 A2997 RMK AO2 SLP159 T02610239 PNO $
KECP 240553Z AUTO 20004KT 10SM CLR 26/24 A2998 RMK AO2 SLP162 6//// T02610239 10300 20256 403330256 50003 PNO $
KECP 240453Z AUTO 22003KT 10SM CLR 26/24 A2999 RMK AO2 SLP165 T02610244 PNO $
KECP 240353Z AUTO 20003KT 10SM CLR 27/24 A2999 RMK AO2 SLP167 T02670244 PNO $
KECP 240253Z AUTO 18004KT 10SM CLR 27/24 A2997 RMK AO2 RAE0159 SLP159 6//// T02720244 53011 PNO $
KECP 240153Z COR 19005KT 10SM CLR 27/24 A2995 RMK AO2 RAB15 SLP153 T02720244 PNO $
KECP 240053Z 18006KT 10SM FEW020 28/24 A2994 RMK AO2 SLP150 T02830244 PNO $
KECP 232353Z 19008KT 10SM SCT020 30/24 A2994 RMK AO2 RAB25E50 SLP148 6//// T03000239 10333 20300 53000 PNO $
KECP 232253Z 21010KT 10SM SCT030 31/24 A2993 RMK AO2 SLP145 T03110239 PNO $
KECP 232153Z 22010KT 10SM SCT035 32/24 A2993 RMK AO2 SLP147 T03170239 PNO $
KECP 232053Z 23014KT 10SM SCT040 32/23 A2994 RMK AO2 SLP148 6//// T03220228 56013 PNO $
KECP 231953Z 22012KT 10SM SCT040 33/23 A2994 RMK AO2 SLP150 T03280233 PNO $
KECP 231853Z 22013G19KT 10SM SCT039 33/23 A2996 RMK AO2 LTG DSNT NW RAB11E19 SLP155 T03280228 PNO $
KECP 231753Z 23014G19KT 10SM SCT039 33/22 A2997 RMK AO2 SLP160 6//// T03280222 10333 20278 58004 PNO $
KECP 231700Z 26009KT 10SM BKN039 BKN049 32/23 A2999 RMK AO2 T03220228 PNO $
KECP 231653Z COR 25010KT 10SM BKN039 32/23 A2999 RMK AO2 LTG DSNT SW SLP167 T03220228 PNO $
KECP 231553Z 23008KT 10SM BKN029 32/23 A3000 RMK AO2 SLP170 T03170228 PNO $
KECP 231453Z 26011KT 10SM BKN029 31/23 A2999 RMK AO2 SLP165 6//// T03110228 53010 PNO $
KECP 231353Z 22010G18KT 10SM SCT022 30/23 A2997 RMK AO2 SLP158 T03000228 PNO $
KECP 231253Z 22010KT 10SM CLR 29/23 A2997 RMK AO2 SLP158 T02940233 PNO $
KECP 231153Z 22005KT 10SM FEW015 28/23 A2996 RMK AO2 SLP155 6//// 7//// T02780233 10278 20261 53014 PNO $
KECP 231053Z 23005KT 10SM FEW020 26/23 A2994 RMK AO2 SLP149 T02610228 PNO $
KECP 230953Z AUTO 22008KT 10SM CLR 27/23 A2993 RMK AO2 SLP145 T02670228 PNO $
KECP 230853Z AUTO 20006KT 10SM FEW027 26/23 A2992 RMK AO2 SLP141 6//// T02610228 51009 PNO $
KECP 230753Z AUTO 19005KT 10SM FEW025 FEW033 26/23 A2991 RMK AO2 SLP140 T02610233 PNO $
KECP 230653Z AUTO 22005KT 10SM CLR 27/23 A2991 RMK AO2 SLP138 T02670228 PNO $
KECP 230553Z AUTO 17008KT 10SM CLR 27/23 A2989 RMK AO2 SLP132 6//// T02670233 10294 20256 403220250 58013 PNO $
KECP 230453Z AUTO 20007KT 10SM CLR 27/23 A2992 RMK AO2 SLP143 T02670233 PNO $
KECP 230353Z AUTO 18006KT 10SM CLR 26/23 A2992 RMK AO2 SLP143 T02610233 PNO $
KECP 230253Z AUTO 22004KT 10SM FEW027 27/23 A2993 RMK AO2 SLP144 6//// T02670233 53015 PNO $
KECP 230153Z 22006KT 10SM FEW040 27/23 A2990 RMK AO2 SLP136 T02720233 PNO $
KECP 230053Z 21008KT 10SM CLR 28/23 A2988 RMK AO2 SLP129 T02830233 PNO $
KECP 222353Z 22012KT 10SM FEW030 29/23 A2988 RMK AO2 SLP129 6//// T02940228 10322 20294 56004 PNO $
KECP 222253Z 23011KT 10SM SCT031 31/23 A2988 RMK AO2 SLP130 T03060228 PNO $
KECP 222153Z 20013G19KT 10SM SCT028 SCT036 31/23 A2988 RMK AO2 SLP128 T03060233 PNO $
KECP 222053Z 21015KT 10SM SCT033 31/23 A2990 RMK AO2 SLP134 60000 T03110228 58013
KECP 221953Z 21014G19KT 10SM SCT037 32/23 A2992 RMK AO2 RAB14E18 SLP141 P0000 T03170228